createdAt,value
2018-11-29T00:02:01.100Z," 7.98"
2018-11-29T00:06:56.854Z," 7.98"
2018-11-29T00:11:52.360Z," 7.95"
2018-11-29T00:16:48.130Z," 8.09"
2018-11-29T00:21:44.060Z," 8.00"
2018-11-29T00:26:40.147Z," 8.00"
2018-11-29T00:31:35.861Z," 8.08"
2018-11-29T00:36:32.079Z," 8.09"
2018-11-29T00:41:27.630Z," 8.12"
2018-11-29T00:46:23.531Z," 8.23"
2018-11-29T00:51:20.611Z," 8.10"
2018-11-29T00:56:15.936Z," 8.20"
2018-11-29T01:01:12.010Z," 8.19"
2018-11-29T01:06:08.239Z," 8.20"
2018-11-29T01:11:04.001Z," 8.27"
2018-11-29T01:15:59.736Z," 8.33"
2018-11-29T01:20:55.483Z," 8.33"
2018-11-29T01:25:51.235Z," 8.23"
2018-11-29T01:30:47.389Z," 8.27"
2018-11-29T01:35:43.509Z," 8.28"
2018-11-29T01:40:39.030Z," 8.33"
2018-11-29T01:45:34.911Z," 8.34"
2018-11-29T01:50:30.763Z," 8.31"
2018-11-29T01:55:26.616Z," 8.48"
2018-11-29T02:00:22.252Z," 8.51"
2018-11-29T02:05:19.076Z," 8.38"
2018-11-29T02:10:14.524Z," 8.52"
2018-11-29T02:15:10.064Z," 8.44"
2018-11-29T02:20:05.405Z," 8.48"
2018-11-29T02:25:01.042Z," 8.52"
2018-11-29T02:29:57.159Z," 8.63"
2018-11-29T02:34:52.918Z," 8.67"
2018-11-29T02:39:49.782Z," 8.74"
2018-11-29T02:44:45.280Z," 8.85"
2018-11-29T02:49:41.217Z," 8.89"
2018-11-29T02:54:37.416Z," 8.91"
2018-11-29T02:59:32.997Z," 8.87"
2018-11-29T03:04:28.821Z," 9.13"
2018-11-29T03:09:24.771Z," 9.21"
2018-11-29T03:14:20.588Z," 9.18"
2018-11-29T03:19:16.758Z," 9.22"
2018-11-29T03:24:12.331Z," 9.26"
2018-11-29T03:29:08.005Z," 9.22"
2018-11-29T03:34:04.227Z," 9.22"
2018-11-29T03:39:00.226Z," 9.19"
2018-11-29T03:43:56.970Z," 9.32"
2018-11-29T03:48:52.479Z," 9.29"
2018-11-29T03:53:48.133Z," 9.28"
2018-11-29T03:58:44.746Z," 9.34"
2018-11-29T04:03:40.129Z," 9.22"
2018-11-29T04:08:36.159Z," 9.37"
2018-11-29T04:13:32.243Z," 9.46"
2018-11-29T04:18:28.074Z," 9.44"
2018-11-29T04:23:23.566Z," 9.34"
2018-11-29T04:28:19.361Z," 9.46"
2018-11-29T04:33:15.156Z," 9.40"
2018-11-29T04:38:10.925Z," 9.40"
2018-11-29T04:43:07.656Z," 9.54"
2018-11-29T04:48:09.831Z," 9.51"
2018-11-29T04:53:04.290Z," 9.62"
2018-11-29T04:57:59.693Z," 9.72"
2018-11-29T05:02:55.089Z," 9.76"
2018-11-29T05:07:50.888Z," 9.83"
2018-11-29T05:12:46.916Z," 9.76"
2018-11-29T05:17:42.685Z," 9.56"
2018-11-29T05:22:38.371Z," 9.59"
2018-11-29T05:27:34.991Z," 9.59"
2018-11-29T05:32:30.508Z," 9.41"
2018-11-29T05:37:26.052Z," 9.50"
2018-11-29T05:42:21.840Z," 9.44"
2018-11-29T05:47:18.428Z," 9.37"
2018-11-29T05:52:14.853Z," 9.14"
2018-11-29T05:57:10.012Z," 9.18"
2018-11-29T06:02:05.653Z," 9.21"
2018-11-29T06:07:01.234Z," 9.21"
2018-11-29T06:11:57.708Z," 9.14"
2018-11-29T06:16:53.281Z," 9.06"
2018-11-29T06:21:48.880Z," 9.10"
2018-11-29T06:26:44.818Z," 9.10"
2018-11-29T06:31:40.466Z," 9.14"
2018-11-29T06:36:37.274Z," 9.18"
2018-11-29T06:41:33.670Z," 9.13"
2018-11-29T06:46:29.001Z," 9.13"
2018-11-29T06:51:24.825Z," 9.14"
2018-11-29T06:56:20.377Z," 9.13"
2018-11-29T07:01:16.075Z," 9.08"
2018-11-29T07:06:11.643Z," 9.00"
2018-11-29T07:11:07.438Z," 8.99"
2018-11-29T07:16:04.031Z," 9.00"
2018-11-29T07:21:00.313Z," 9.14"
2018-11-29T07:25:55.843Z," 9.02"
2018-11-29T07:30:51.891Z," 9.21"
2018-11-29T07:35:47.830Z," 9.19"
2018-11-29T07:40:43.445Z," 9.23"
2018-11-29T07:45:39.143Z," 9.26"
2018-11-29T07:50:34.503Z," 9.34"
2018-11-29T07:55:30.474Z," 9.41"
2018-11-29T08:00:26.962Z," 9.43"
2018-11-29T08:05:24.275Z," 9.36"
2018-11-29T08:10:19.763Z," 9.46"
2018-11-29T08:15:16.390Z," 9.44"
2018-11-29T08:20:11.994Z," 9.40"
2018-11-29T08:25:07.718Z," 9.46"
2018-11-29T08:30:03.592Z," 9.46"
2018-11-29T08:35:00.989Z," 9.36"
2018-11-29T08:39:57.330Z," 9.36"
2018-11-29T08:44:52.554Z," 9.36"
2018-11-29T08:49:48.393Z," 9.40"
2018-11-29T08:54:44.108Z," 9.39"
2018-11-29T08:59:40.374Z," 9.39"
2018-11-29T09:04:36.953Z," 9.34"
2018-11-29T09:09:33.353Z," 9.46"
2018-11-29T09:14:28.710Z," 9.44"
2018-11-29T09:19:26.382Z," 9.62"
2018-11-29T09:24:21.870Z," 9.51"
2018-11-29T09:29:17.695Z," 9.58"
2018-11-29T09:34:13.295Z," 9.69"
2018-11-29T09:39:10.047Z," 9.72"
2018-11-29T09:44:05.281Z," 9.73"
2018-11-29T09:49:01.080Z," 9.77"
2018-11-29T09:53:56.549Z," 9.83"
2018-11-29T09:58:53.755Z," 9.97"
2018-11-29T10:03:49.113Z,10.01
2018-11-29T10:08:45.899Z,10.10
2018-11-29T10:13:46.213Z,10.17
2018-11-29T10:18:40.950Z,10.20
2018-11-29T10:23:37.728Z,10.25
2018-11-29T10:28:33.295Z,10.33
2018-11-29T10:33:28.777Z,10.35
2018-11-29T10:38:24.970Z,10.37
2018-11-29T10:43:20.654Z,10.40
2018-11-29T10:48:16.239Z,10.44
2018-11-29T10:53:12.050Z,10.42
2018-11-29T10:58:07.850Z,10.42
2018-11-29T11:03:04.604Z,10.49
2018-11-29T11:08:00.246Z,10.54
2018-11-29T11:12:55.740Z,10.51
2018-11-29T11:17:52.682Z,10.59
2018-11-29T11:22:48.261Z,10.48
2018-11-29T11:27:44.910Z,10.59
2018-11-29T11:32:41.345Z,10.59
2018-11-29T11:37:37.199Z,10.68
2018-11-29T11:42:34.017Z,10.76
2018-11-29T11:47:31.166Z,10.84
2018-11-29T11:52:27.706Z,10.90
2018-11-29T11:57:23.465Z,10.87
2018-11-29T12:02:19.310Z,10.97
2018-11-29T12:07:14.547Z,10.94
2018-11-29T12:12:10.369Z,11.08
2018-11-29T12:17:07.129Z,11.10
2018-11-29T12:22:02.717Z,11.14
2018-11-29T12:26:59.321Z,11.23
2018-11-29T12:31:54.888Z,11.19
2018-11-29T12:36:51.863Z,11.22
2018-11-29T12:41:47.678Z,11.18
2018-11-29T12:46:43.258Z,11.17
2018-11-29T12:51:39.288Z,11.15
2018-11-29T12:56:35.638Z,11.14
2018-11-29T13:01:31.220Z,11.14
2018-11-29T13:06:27.759Z,11.19
2018-11-29T13:11:24.365Z,10.96
2018-11-29T13:16:19.837Z,10.82
2018-11-29T13:21:15.270Z,10.74
2018-11-29T13:26:10.974Z,10.56
2018-11-29T13:31:06.895Z,10.57
2018-11-29T13:36:03.475Z,10.49
2018-11-29T13:40:58.819Z,10.49
2018-11-29T13:45:54.599Z,10.60
2018-11-29T13:50:50.410Z,10.53
2018-11-29T13:55:45.995Z,10.49
2018-11-29T14:00:41.818Z,10.51
2018-11-29T14:05:37.572Z,10.54
2018-11-29T14:10:33.584Z,10.72
2018-11-29T14:15:29.946Z,10.74
2018-11-29T14:20:26.238Z,10.72
2018-11-29T14:25:22.025Z,10.74
2018-11-29T14:30:18.526Z,10.61
2018-11-29T14:35:14.785Z,10.57
2018-11-29T14:40:10.483Z,10.51
2018-11-29T14:45:06.129Z,10.51
2018-11-29T14:50:01.924Z,10.49
2018-11-29T14:54:58.008Z,10.51
2018-11-29T14:59:53.706Z,10.40
2018-11-29T15:04:49.880Z,10.51
2018-11-29T15:09:45.581Z,10.48
2018-11-29T15:14:41.983Z,10.49
2018-11-29T15:19:37.698Z,10.44
2018-11-29T15:24:33.105Z,10.41
2018-11-29T15:29:28.944Z,10.49
2018-11-29T15:34:26.271Z,10.67
2018-11-29T15:39:21.867Z,10.68
2018-11-29T15:44:18.347Z,10.74
2018-11-29T15:49:13.742Z,10.81
2018-11-29T15:54:10.144Z,10.74
2018-11-29T15:59:05.824Z,10.75
2018-11-29T16:04:01.714Z,10.78
2018-11-29T16:08:57.362Z,10.75
2018-11-29T16:13:53.175Z,10.84
2018-11-29T16:18:50.070Z,10.84
2018-11-29T16:23:45.482Z,10.75
2018-11-29T16:28:42.863Z,10.75
2018-11-29T16:33:38.321Z,10.68
2018-11-29T16:38:35.413Z,10.71
2018-11-29T16:43:31.140Z,10.64
2018-11-29T16:48:26.820Z,10.64
2018-11-29T16:53:22.563Z,10.74
2018-11-29T16:58:18.448Z,10.64
2018-11-29T17:03:15.140Z,10.64
2018-11-29T17:08:11.760Z,10.51
2018-11-29T17:13:07.417Z,10.63
2018-11-29T17:18:03.232Z,10.64
2018-11-29T17:22:59.688Z,10.61
2018-11-29T17:27:55.126Z,10.68
2018-11-29T17:32:50.759Z,10.61
2018-11-29T17:37:47.547Z,10.71
2018-11-29T17:42:43.142Z,10.92
2018-11-29T17:47:40.021Z,11.05
2018-11-29T17:52:35.564Z,11.10
2018-11-29T17:57:31.592Z,11.04
2018-11-29T18:02:27.098Z,11.02
2018-11-29T18:07:27.784Z,11.07
2018-11-29T18:12:22.419Z,11.10
2018-11-29T18:17:18.055Z,11.00
2018-11-29T18:22:13.695Z,11.05
2018-11-29T18:27:09.506Z,11.02
2018-11-29T18:32:05.346Z,11.08
2018-11-29T18:37:01.098Z,11.12
2018-11-29T18:41:56.539Z,11.05
2018-11-29T18:46:52.327Z,11.00
2018-11-29T18:51:48.467Z,10.90
2018-11-29T18:56:45.239Z,10.82
2018-11-29T19:01:41.312Z,10.84
2018-11-29T19:06:36.645Z,10.69
2018-11-29T19:11:32.628Z,10.59
2018-11-29T19:16:28.417Z,10.48
2018-11-29T19:21:23.930Z,10.46
2018-11-29T19:26:19.537Z,10.28
2018-11-29T19:31:15.131Z,10.38
2018-11-29T19:36:10.701Z,10.25
2018-11-29T19:41:06.350Z,10.22
2018-11-29T19:46:02.303Z,10.26
2018-11-29T19:50:58.183Z,10.31
2018-11-29T19:55:54.016Z,10.46
2018-11-29T20:00:50.030Z,10.38
2018-11-29T20:05:46.699Z,10.46
2018-11-29T20:10:42.209Z,10.48
2018-11-29T20:15:37.923Z,10.38
2018-11-29T20:20:33.726Z,10.33
2018-11-29T20:25:29.521Z,10.33
2018-11-29T20:30:25.184Z,10.28
2018-11-29T20:35:21.043Z,10.31
2018-11-29T20:40:16.892Z,10.30
2018-11-29T20:45:12.611Z,10.30
2018-11-29T20:50:14.615Z,10.26
2018-11-29T20:55:08.662Z,10.26
2018-11-29T21:00:04.580Z,10.20
2018-11-29T21:05:00.652Z,10.15
2018-11-29T21:09:56.297Z,10.16
2018-11-29T21:14:52.266Z,10.19
2018-11-29T21:19:48.038Z,10.10
2018-11-29T21:24:43.384Z,10.07
2018-11-29T21:29:39.385Z,10.05
2018-11-29T21:34:35.343Z," 9.98"
2018-11-29T21:39:31.314Z," 9.87"
2018-11-29T21:44:26.907Z," 9.98"
2018-11-29T21:49:25.083Z," 9.95"
2018-11-29T21:54:20.292Z," 9.92"
2018-11-29T21:59:16.091Z," 9.95"
2018-11-29T22:04:12.552Z," 9.84"
2018-11-29T22:09:09.631Z," 9.98"
2018-11-29T22:14:05.138Z," 9.94"
2018-11-29T22:19:00.895Z,10.04
2018-11-29T22:23:56.744Z,10.07
2018-11-29T22:28:53.290Z,10.15
2018-11-29T22:33:48.651Z,10.12
2018-11-29T22:38:45.153Z,10.10
2018-11-29T22:43:40.789Z,10.12
2018-11-29T22:48:37.657Z,10.09
2018-11-29T22:53:33.288Z,10.05
2018-11-29T22:58:28.877Z,10.09
2018-11-29T23:03:24.774Z,10.20
2018-11-29T23:08:20.744Z,10.26
2018-11-29T23:13:17.521Z,10.34
2018-11-29T23:18:12.872Z,10.20
2018-11-29T23:23:08.574Z,10.16
2018-11-29T23:28:04.102Z,10.26
2018-11-29T23:33:00.832Z,10.31
2018-11-29T23:37:56.764Z,10.37
2018-11-29T23:42:52.427Z,10.49
2018-11-29T23:47:48.334Z,10.51
2018-11-29T23:52:43.769Z,10.40
2018-11-29T23:57:39.831Z,10.46
